createdAt,value
2017-12-11T00:02:10.543Z,69.84
2017-12-11T00:04:38.054Z,70.62
2017-12-11T00:07:05.559Z,70.65
2017-12-11T00:09:33.071Z,70.62
2017-12-11T00:12:00.610Z,71.92
2017-12-11T00:14:28.128Z,70.99
2017-12-11T00:16:55.641Z,71.20
2017-12-11T00:19:23.273Z,71.42
2017-12-11T00:21:50.786Z,71.76
2017-12-11T00:24:18.302Z,71.28
2017-12-11T00:26:46.046Z,72.11
2017-12-11T00:29:13.546Z,71.62
2017-12-11T00:31:41.063Z,72.40
2017-12-11T00:34:08.756Z,72.04
2017-12-11T00:36:36.263Z,72.10
2017-12-11T00:39:03.770Z,71.97
2017-12-11T00:41:31.683Z,72.51
2017-12-11T00:43:59.194Z,72.51
2017-12-11T00:46:26.703Z,71.56
2017-12-11T00:48:54.490Z,72.43
2017-12-11T00:51:21.997Z,72.49
2017-12-11T00:53:49.509Z,72.22
2017-12-11T00:56:17.268Z,72.84
2017-12-11T00:58:44.828Z,72.88
2017-12-11T01:01:12.334Z,72.95
2017-12-11T01:03:40.765Z,72.18
2017-12-11T01:06:08.270Z,72.19
2017-12-11T01:08:35.781Z,71.95
2017-12-11T01:11:03.442Z,70.46
2017-12-11T01:13:30.945Z,71.83
2017-12-11T01:15:58.458Z,70.52
2017-12-11T01:18:26.001Z,70.87
2017-12-11T01:20:53.508Z,71.08
2017-12-11T01:23:21.912Z,70.62
2017-12-11T01:25:49.693Z,70.83
2017-12-11T01:28:17.202Z,70.50
2017-12-11T01:30:44.705Z,70.49
2017-12-11T01:33:12.585Z,69.24
2017-12-11T01:35:40.095Z,70.03
2017-12-11T01:38:07.608Z,68.67
2017-12-11T01:40:35.146Z,69.25
2017-12-11T01:43:02.654Z,68.82
2017-12-11T01:45:30.160Z,68.11
2017-12-11T01:47:57.730Z,68.24
2017-12-11T01:50:25.238Z,68.05
2017-12-11T01:52:53.278Z,67.97
2017-12-11T01:55:20.838Z,67.67
2017-12-11T01:57:48.338Z,66.78
2017-12-11T02:00:15.853Z,67.09
2017-12-11T02:02:43.617Z,68.15
2017-12-11T02:05:11.117Z,67.76
2017-12-11T02:07:38.625Z,68.72
2017-12-11T02:10:06.205Z,67.81
2017-12-11T02:12:33.712Z,66.91
2017-12-11T02:15:01.218Z,67.59
2017-12-11T02:17:28.766Z,66.67
2017-12-11T02:19:56.272Z,66.98
2017-12-11T02:22:23.782Z,68.46
2017-12-11T02:24:51.482Z,68.91
2017-12-11T02:27:19.003Z,68.60
2017-12-11T02:29:46.510Z,67.24
2017-12-11T02:32:14.054Z,67.54
2017-12-11T02:34:41.578Z,67.71
2017-12-11T02:37:09.137Z,66.85
2017-12-11T02:39:37.010Z,67.09
2017-12-11T02:42:04.515Z,67.71
2017-12-11T02:44:32.025Z,67.61
2017-12-11T02:46:59.587Z,67.44
2017-12-11T02:49:27.140Z,67.29
2017-12-11T02:51:54.702Z,66.77
2017-12-11T02:54:22.266Z,66.45
2017-12-11T02:56:49.778Z,66.46
2017-12-11T02:59:17.282Z,65.31
2017-12-11T03:01:45.240Z,65.59
2017-12-11T03:04:12.902Z,65.58
2017-12-11T03:06:40.461Z,64.94
2017-12-11T03:09:08.202Z,64.68
2017-12-11T03:11:35.702Z,64.72
2017-12-11T03:14:03.241Z,64.83
2017-12-11T03:16:30.795Z,64.91
2017-12-11T03:18:58.302Z,65.25
2017-12-11T03:21:26.328Z,65.20
2017-12-11T03:23:54.064Z,65.25
2017-12-11T03:26:21.566Z,65.47
2017-12-11T03:28:49.111Z,66.11
2017-12-11T03:31:16.873Z,65.90
2017-12-11T03:33:44.424Z,65.97
2017-12-11T03:36:11.990Z,65.59
2017-12-11T03:38:39.730Z,65.28
2017-12-11T03:41:07.246Z,65.89
2017-12-11T03:43:34.769Z,65.98
2017-12-11T03:46:02.635Z,65.22
2017-12-11T03:48:30.196Z,64.65
2017-12-11T03:50:57.700Z,64.95
2017-12-11T03:53:25.494Z,64.80
2017-12-11T03:55:53.001Z,65.41
2017-12-11T03:58:20.502Z,65.01
2017-12-11T04:00:48.478Z,64.45
2017-12-11T04:03:15.977Z,64.54
2017-12-11T04:05:43.517Z,64.43
2017-12-11T04:08:11.294Z,63.93
2017-12-11T04:10:38.947Z,63.72
2017-12-11T04:13:06.457Z,63.87
2017-12-11T04:15:34.078Z,63.91
2017-12-11T04:18:01.594Z,64.63
2017-12-11T04:20:29.094Z,64.16
2017-12-11T04:22:56.641Z,63.70
2017-12-11T04:25:24.213Z,63.33
2017-12-11T04:27:51.721Z,63.31
2017-12-11T04:30:19.622Z,63.27
2017-12-11T04:32:47.123Z,63.30
2017-12-11T04:35:14.639Z,63.33
2017-12-11T04:37:42.628Z,63.33
2017-12-11T04:40:10.164Z,63.50
2017-12-11T04:42:37.735Z,63.76
2017-12-11T04:45:05.589Z,63.85
2017-12-11T04:47:33.093Z,64.00
2017-12-11T04:50:00.616Z,64.02
2017-12-11T04:52:28.246Z,64.22
2017-12-11T04:54:55.775Z,64.27
2017-12-11T04:57:23.284Z,64.49
2017-12-11T04:59:50.845Z,64.49
2017-12-11T05:02:18.362Z,65.11
2017-12-11T05:04:45.874Z,65.17
2017-12-11T05:07:13.423Z,65.93
2017-12-11T05:09:40.979Z,65.87
2017-12-11T05:12:08.485Z,65.94
2017-12-11T05:14:36.196Z,65.48
2017-12-11T05:17:03.703Z,65.99
2017-12-11T05:19:31.234Z,66.05
2017-12-11T05:21:58.770Z,65.62
2017-12-11T05:24:26.283Z,65.46
2017-12-11T05:26:53.790Z,65.41
2017-12-11T05:29:21.448Z,65.40
2017-12-11T05:31:49.003Z,65.55
2017-12-11T05:34:16.594Z,65.56
2017-12-11T05:36:47.333Z,65.52
2017-12-11T05:39:14.838Z,65.61
2017-12-11T05:41:42.338Z,65.59
2017-12-11T05:44:09.894Z,66.17
2017-12-11T05:46:37.434Z,66.03
2017-12-11T05:49:04.937Z,66.35
2017-12-11T05:51:32.657Z,67.65
2017-12-11T05:54:00.158Z,67.39
2017-12-11T05:56:27.673Z,67.10
2017-12-11T05:58:55.546Z,67.61
2017-12-11T06:01:23.097Z,66.98
2017-12-11T06:03:50.660Z,67.28
2017-12-11T06:06:18.398Z,66.35
2017-12-11T06:08:45.911Z,66.19
2017-12-11T06:11:13.437Z,66.07
2017-12-11T06:13:41.303Z,66.17
2017-12-11T06:16:08.806Z,66.12
2017-12-11T06:18:36.318Z,66.07
2017-12-11T06:21:04.081Z,66.23
2017-12-11T06:23:31.587Z,66.44
2017-12-11T06:25:59.097Z,66.38
2017-12-11T06:28:26.656Z,66.82
2017-12-11T06:30:54.162Z,66.41
2017-12-11T06:35:48.515Z,66.76
2017-12-11T06:38:16.017Z,67.07
2017-12-11T06:40:43.636Z,69.15
2017-12-11T06:43:11.397Z,68.71
2017-12-11T06:45:38.905Z,68.20
2017-12-11T06:48:06.430Z,68.79
2017-12-11T06:50:33.982Z,68.43
2017-12-11T06:53:01.534Z,69.00
2017-12-11T06:55:29.091Z,68.12
2017-12-11T06:57:56.638Z,67.65
2017-12-11T07:00:24.142Z,67.53
2017-12-11T07:02:51.665Z,67.74
2017-12-11T07:05:19.224Z,67.43
2017-12-11T07:07:46.726Z,67.38
2017-12-11T07:10:14.339Z,67.13
2017-12-11T07:12:42.105Z,67.88
2017-12-11T07:15:09.638Z,67.65
2017-12-11T07:17:37.146Z,68.57
2017-12-11T07:20:04.702Z,68.58
2017-12-11T07:22:32.240Z,68.92
2017-12-11T07:24:59.741Z,68.09
2017-12-11T07:27:27.461Z,67.77
2017-12-11T07:29:54.970Z,67.76
2017-12-11T07:32:22.482Z,67.48
2017-12-11T07:34:50.218Z,67.72
2017-12-11T07:37:17.726Z,67.59
2017-12-11T07:39:45.258Z,67.88
2017-12-11T07:42:12.938Z,67.31
2017-12-11T07:44:40.477Z,67.16
2017-12-11T07:47:09.039Z,67.50
2017-12-11T07:49:37.186Z,67.77
2017-12-11T07:52:04.761Z,68.88
2017-12-11T07:54:32.558Z,68.96
2017-12-11T07:57:00.671Z,69.37
2017-12-11T07:59:28.291Z,69.69
2017-12-11T08:01:56.883Z,69.71
2017-12-11T08:04:25.529Z,72.91
2017-12-11T08:06:53.190Z,73.31
2017-12-11T08:09:21.026Z,73.58
2017-12-11T08:11:48.733Z,73.40
2017-12-11T08:14:16.621Z,73.33
2017-12-11T08:16:45.078Z,73.93
2017-12-11T08:19:12.730Z,74.94
2017-12-11T08:21:41.039Z,74.62
2017-12-11T08:24:08.874Z,73.92
2017-12-11T08:26:36.805Z,73.79
2017-12-11T08:29:04.326Z,75.24
2017-12-11T08:31:32.599Z,74.59
2017-12-11T08:34:03.948Z,73.87
2017-12-11T08:36:31.563Z,73.79
2017-12-11T08:39:00.294Z,73.55
2017-12-11T08:41:28.183Z,73.45
2017-12-11T08:43:56.924Z,74.11
2017-12-11T08:46:26.730Z,74.06
2017-12-11T08:48:55.105Z,73.91
2017-12-11T08:51:24.274Z,74.04
2017-12-11T08:53:52.610Z,74.20
2017-12-11T08:56:20.170Z,73.34
2017-12-11T08:58:48.550Z,74.01
2017-12-11T09:01:16.242Z,73.87
2017-12-11T09:03:43.874Z,73.70
2017-12-11T09:06:11.438Z,73.99
2017-12-11T09:08:39.893Z,73.87
2017-12-11T09:11:07.470Z,73.51
2017-12-11T09:13:35.645Z,73.81
2017-12-11T09:16:03.153Z,73.62
2017-12-11T09:18:30.731Z,74.59
2017-12-11T09:20:58.243Z,74.32
2017-12-11T09:23:25.780Z,74.14
2017-12-11T09:25:53.346Z,74.06
2017-12-11T09:28:21.010Z,75.16
2017-12-11T09:30:48.560Z,73.81
2017-12-11T09:33:16.523Z,73.89
2017-12-11T09:35:44.031Z,74.02
2017-12-11T09:38:11.646Z,74.44
2017-12-11T09:40:39.434Z,73.24
2017-12-11T09:43:08.197Z,72.83
2017-12-11T09:45:36.269Z,72.42
2017-12-11T09:48:04.707Z,71.02
2017-12-11T09:50:32.291Z,70.82
2017-12-11T09:53:01.670Z,71.00
2017-12-11T09:55:29.578Z,70.51
2017-12-11T09:57:57.358Z,70.86
2017-12-11T10:00:25.002Z,69.32
2017-12-11T10:02:53.279Z,69.46
2017-12-11T10:05:20.842Z,67.96
2017-12-11T10:07:48.447Z,67.65
2017-12-11T10:10:16.775Z,67.72
2017-12-11T10:12:46.282Z,67.18
2017-12-11T10:15:13.903Z,67.58
2017-12-11T10:17:41.995Z,66.74
2017-12-11T10:20:10.392Z,67.34
2017-12-11T10:22:38.204Z,67.57
2017-12-11T10:25:07.256Z,67.24
2017-12-11T10:27:35.949Z,66.82
2017-12-11T10:30:04.860Z,67.50
2017-12-11T10:32:32.592Z,67.07
2017-12-11T10:35:02.129Z,66.97
2017-12-11T10:37:32.464Z,66.03
2017-12-11T10:40:00.945Z,65.79
2017-12-11T10:42:28.878Z,66.28
2017-12-11T10:44:57.553Z,65.74
2017-12-11T10:47:25.322Z,65.46
2017-12-11T10:49:52.877Z,65.09
2017-12-11T10:52:20.581Z,64.68
2017-12-11T10:54:48.098Z,64.13
2017-12-11T10:57:15.606Z,64.45
2017-12-11T10:59:43.402Z,65.69
2017-12-11T11:02:10.906Z,64.80
2017-12-11T11:04:38.438Z,65.89
2017-12-11T11:07:06.282Z,66.23
2017-12-11T11:09:33.786Z,65.73
2017-12-11T11:12:02.036Z,66.77
2017-12-11T11:14:29.799Z,66.50
2017-12-11T11:16:57.360Z,66.75
2017-12-11T11:19:24.874Z,66.32
2017-12-11T11:21:52.579Z,67.08
2017-12-11T11:24:20.139Z,67.91
2017-12-11T11:26:47.642Z,67.08
2017-12-11T11:29:15.563Z,66.42
2017-12-11T11:31:43.122Z,64.38
2017-12-11T11:34:10.630Z,64.73
2017-12-11T11:36:38.426Z,63.67
2017-12-11T11:39:05.935Z,63.50
2017-12-11T11:41:33.462Z,64.13
2017-12-11T11:44:01.230Z,63.35
2017-12-11T11:46:28.889Z,63.45
2017-12-11T11:48:57.617Z,62.65
2017-12-11T11:51:27.079Z,63.18
2017-12-11T11:53:54.636Z,64.01
2017-12-11T11:56:22.503Z,64.39
2017-12-11T11:58:50.548Z,65.72
2017-12-11T12:01:18.133Z,65.81
2017-12-11T12:03:46.878Z,65.28
2017-12-11T12:06:14.583Z,65.51
2017-12-11T12:08:42.245Z,65.85
2017-12-11T12:11:10.521Z,65.79
2017-12-11T12:13:38.610Z,65.23
2017-12-11T12:16:06.238Z,64.70
2017-12-11T12:18:33.920Z,65.33
2017-12-11T12:21:01.596Z,65.78
2017-12-11T12:23:29.562Z,65.92
2017-12-11T12:25:57.308Z,65.79
2017-12-11T12:28:24.971Z,65.23
2017-12-11T12:30:52.656Z,65.04
2017-12-11T12:33:20.193Z,65.61
2017-12-11T12:35:48.380Z,65.99
2017-12-11T12:38:16.231Z,65.74
2017-12-11T12:40:43.830Z,64.96
2017-12-11T12:43:12.514Z,64.88
2017-12-11T12:45:40.042Z,64.45
2017-12-11T12:48:07.593Z,63.84
2017-12-11T12:50:35.791Z,63.92
2017-12-11T12:53:03.566Z,64.39
2017-12-11T12:55:31.157Z,64.04
2017-12-11T12:57:59.775Z,64.95
2017-12-11T13:00:28.521Z,65.14
2017-12-11T13:02:56.840Z,65.35
2017-12-11T13:05:25.526Z,65.01
2017-12-11T13:07:53.086Z,65.40
2017-12-11T13:10:21.033Z,66.22
2017-12-11T13:12:49.723Z,66.36
2017-12-11T13:15:17.238Z,65.45
2017-12-11T13:17:45.960Z,65.00
2017-12-11T13:20:14.317Z,64.61
2017-12-11T13:22:43.007Z,64.69
2017-12-11T13:25:10.596Z,64.52
2017-12-11T13:27:43.491Z,64.80
2017-12-11T13:30:16.576Z,64.65
2017-12-11T13:32:44.550Z,64.10
2017-12-11T13:35:12.100Z,64.44
2017-12-11T13:37:41.283Z,64.65
2017-12-11T13:40:09.273Z,63.87
2017-12-11T13:42:37.671Z,63.41
2017-12-11T13:45:06.646Z,64.28
2017-12-11T13:47:35.331Z,64.15
2017-12-11T13:50:03.746Z,64.68
2017-12-11T13:52:36.101Z,64.10
2017-12-11T13:55:03.743Z,64.36
2017-12-11T13:57:32.860Z,64.24
2017-12-11T14:00:02.940Z,65.06
2017-12-11T14:02:30.762Z,64.72
2017-12-11T14:04:58.393Z,65.77
2017-12-11T14:07:26.070Z,65.84
2017-12-11T14:09:53.713Z,65.58
2017-12-11T14:12:21.486Z,65.28
2017-12-11T14:14:49.276Z,65.04
2017-12-11T14:17:16.844Z,67.21
2017-12-11T14:19:44.762Z,67.72
2017-12-11T14:22:13.040Z,68.37
2017-12-11T14:24:40.832Z,67.68
2017-12-11T14:27:08.977Z,67.13
2017-12-11T14:29:36.847Z,67.55
2017-12-11T14:32:04.685Z,68.00
2017-12-11T14:34:33.202Z,68.30
2017-12-11T14:37:00.849Z,67.75
2017-12-11T14:39:28.519Z,67.54
2017-12-11T14:41:56.042Z,66.62
2017-12-11T14:44:24.519Z,66.50
2017-12-11T14:46:52.212Z,66.22
2017-12-11T14:49:20.028Z,65.95
2017-12-11T14:51:47.868Z,66.34
2017-12-11T14:54:16.221Z,66.05
2017-12-11T14:56:43.984Z,66.79
2017-12-11T14:59:12.467Z,67.51
2017-12-11T15:01:41.145Z,66.03
2017-12-11T15:04:08.689Z,66.40
2017-12-11T15:06:36.536Z,66.37
2017-12-11T15:09:04.414Z,66.05
2017-12-11T15:11:33.034Z,66.27
2017-12-11T15:14:01.458Z,66.82
2017-12-11T15:16:29.068Z,65.92
2017-12-11T15:18:56.730Z,65.70
2017-12-11T15:21:25.240Z,65.88
2017-12-11T15:23:53.588Z,66.51
2017-12-11T15:26:21.205Z,66.20
2017-12-11T15:28:49.525Z,65.96
2017-12-11T15:31:17.939Z,65.62
2017-12-11T15:33:46.794Z,65.68
2017-12-11T15:36:14.660Z,65.49
2017-12-11T15:38:42.429Z,65.71
2017-12-11T15:41:10.822Z,65.63
2017-12-11T15:43:38.948Z,65.35
2017-12-11T15:46:06.537Z,65.17
2017-12-11T15:48:34.144Z,66.03
2017-12-11T15:51:02.882Z,65.71
2017-12-11T15:53:30.441Z,65.00
2017-12-11T15:55:57.950Z,65.34
2017-12-11T15:58:25.506Z,65.30
2017-12-11T16:00:53.016Z,65.58
2017-12-11T16:03:20.518Z,65.76
2017-12-11T16:05:48.074Z,65.84
2017-12-11T16:08:15.591Z,65.44
2017-12-11T16:10:43.218Z,65.87
2017-12-11T16:13:11.119Z,65.21
2017-12-11T16:15:38.626Z,64.81
2017-12-11T16:18:06.163Z,65.36
2017-12-11T16:20:35.468Z,65.77
2017-12-11T16:23:03.096Z,65.82
2017-12-11T16:25:30.711Z,65.50
2017-12-11T16:27:58.806Z,65.64
2017-12-11T16:30:26.311Z,66.51
2017-12-11T16:32:54.971Z,65.76
2017-12-11T16:35:22.761Z,66.12
2017-12-11T16:37:50.396Z,66.22
2017-12-11T16:40:18.101Z,65.50
2017-12-11T16:42:45.925Z,65.00
2017-12-11T16:45:13.544Z,65.43
2017-12-11T16:47:41.146Z,66.31
2017-12-11T16:50:09.027Z,65.67
2017-12-11T16:52:37.341Z,66.29
2017-12-11T16:55:05.984Z,68.06
2017-12-11T16:57:33.974Z,67.83
2017-12-11T17:00:03.987Z,68.01
2017-12-11T17:02:31.538Z,68.14
2017-12-11T17:04:59.692Z,67.70
2017-12-11T17:07:27.401Z,67.14
2017-12-11T17:09:54.921Z,67.14
2017-12-11T17:12:22.676Z,67.13
2017-12-11T17:14:50.251Z,67.29
2017-12-11T17:17:17.758Z,67.29
2017-12-11T17:19:45.524Z,66.93
2017-12-11T17:22:13.076Z,66.17
2017-12-11T17:24:40.622Z,66.63
2017-12-11T17:27:08.314Z,66.56
2017-12-11T17:29:36.130Z,66.12
2017-12-11T17:32:03.970Z,67.26
2017-12-11T17:34:31.938Z,66.23
2017-12-11T17:36:59.450Z,66.47
2017-12-11T17:39:27.174Z,66.39
2017-12-11T17:41:55.230Z,66.72
2017-12-11T17:44:23.052Z,67.00
2017-12-11T17:46:51.190Z,66.34
2017-12-11T17:49:19.386Z,66.27
2017-12-11T17:51:47.234Z,66.41
2017-12-11T17:54:15.331Z,65.80
2017-12-11T17:56:44.491Z,65.85
2017-12-11T17:59:12.444Z,65.67
2017-12-11T18:01:40.822Z,65.92
2017-12-11T18:04:08.899Z,66.29
2017-12-11T18:06:36.708Z,65.83
2017-12-11T18:09:05.650Z,66.45
2017-12-11T18:11:33.824Z,66.27
2017-12-11T18:14:01.602Z,66.27
2017-12-11T18:16:29.454Z,66.31
2017-12-11T18:18:57.151Z,66.43
2017-12-11T18:21:26.006Z,66.93
2017-12-11T18:23:54.639Z,66.33
2017-12-11T18:26:22.670Z,66.58
2017-12-11T18:28:50.834Z,66.51
2017-12-11T18:31:18.611Z,66.69
2017-12-11T18:33:46.799Z,66.84
2017-12-11T18:36:15.457Z,66.23
2017-12-11T18:38:44.255Z,65.29
2017-12-11T18:41:12.566Z,65.57
2017-12-11T18:43:41.560Z,65.15
2017-12-11T18:46:09.678Z,65.62
2017-12-11T18:48:39.194Z,65.55
2017-12-11T18:51:09.167Z,65.66
2017-12-11T18:53:37.190Z,65.46
2017-12-11T18:56:05.863Z,65.71
2017-12-11T18:58:33.834Z,65.12
2017-12-11T19:01:02.788Z,65.43
2017-12-11T19:03:31.523Z,65.13
2017-12-11T19:05:59.711Z,65.93
2017-12-11T19:08:27.653Z,65.88
2017-12-11T19:10:55.868Z,66.07
2017-12-11T19:13:23.693Z,65.40
2017-12-11T19:15:51.661Z,65.42
2017-12-11T19:18:19.527Z,65.25
2017-12-11T19:20:47.396Z,64.70
2017-12-11T19:23:15.352Z,64.82
2017-12-11T19:25:43.014Z,63.98
2017-12-11T19:28:10.692Z,64.56
2017-12-11T19:30:38.774Z,65.21
2017-12-11T19:33:06.521Z,64.37
2017-12-11T19:35:34.186Z,64.84
2017-12-11T19:38:02.018Z,64.33
2017-12-11T19:40:30.122Z,65.07
